Time;durP1;ratioP1;P1;durP2;ratioP2;P2;SDS_P1;SDS_P2;PMS_P1;PMS_P2;Temp;Humidity;BMP_temperature;BMP_pressure;BME280_temperature;BME280_humidity;BME280_pressure;Samples;Min_cycle;Max_cycle;Signal;HPM_P1;HPM_P2
2021/01/01 00:01:39;;;;;;;46.63;28.25;;;5.20;99.90;;;;;;5070236;28;20269;-76
2021/01/01 00:04:07;;;;;;;47.92;29.38;;;5.20;99.90;;;;;;5062113;28;20188;-75
2021/01/01 00:06:34;;;;;;;46.85;29.33;;;5.20;99.90;;;;;;5060619;28;20196;-75
2021/01/01 00:09:00;;;;;;;44.78;28.77;;;5.30;99.90;;;;;;5063754;28;20196;-75
2021/01/01 00:11:28;;;;;;;42.70;24.92;;;5.20;99.90;;;;;;5068447;28;20641;-75
2021/01/01 00:13:54;;;;;;;39.95;26.95;;;5.20;99.90;;;;;;5066515;28;20358;-75
2021/01/01 00:16:21;;;;;;;44.70;27.08;;;5.20;99.90;;;;;;5068784;28;20222;-76
2021/01/01 00:18:47;;;;;;;47.88;27.95;;;5.20;99.90;;;;;;5062501;28;20188;-75
2021/01/01 00:21:14;;;;;;;48.42;28.02;;;5.30;99.90;;;;;;5069337;28;20192;-76
2021/01/01 00:23:41;;;;;;;41.15;26.50;;;5.30;99.90;;;;;;5062440;28;20640;-75
2021/01/01 00:26:11;;;;;;;41.50;25.58;;;5.20;99.90;;;;;;5073127;28;20197;-75
2021/01/01 00:28:41;;;;;;;42.42;26.08;;;5.20;99.90;;;;;;5066958;28;20223;-74
2021/01/01 00:31:07;;;;;;;35.38;23.75;;;5.30;99.90;;;;;;5066304;28;20224;-75
2021/01/01 00:33:34;;;;;;;33.72;22.75;;;5.20;99.90;;;;;;5060848;28;20224;-75
2021/01/01 00:36:04;;;;;;;38.72;26.35;;;5.20;99.90;;;;;;5066541;28;20189;-76
2021/01/01 00:38:30;;;;;;;34.47;23.45;;;5.20;99.90;;;;;;5073133;28;20216;-76
2021/01/01 00:40:57;;;;;;;34.17;23.52;;;5.20;99.90;;;;;;5072908;28;20192;-75
2021/01/01 00:43:23;;;;;;;34.92;21.80;;;5.20;99.90;;;;;;5062329;28;20295;-75
2021/01/01 00:45:50;;;;;;;30.60;20.13;;;5.10;99.90;;;;;;5071415;28;20254;-76
2021/01/01 00:48:17;;;;;;;38.33;22.70;;;5.10;99.90;;;;;;5070688;28;20199;-76
2021/01/01 00:50:43;;;;;;;35.58;21.63;;;5.10;99.90;;;;;;5069478;28;20311;-75
2021/01/01 00:53:10;;;;;;;38.58;23.35;;;5.00;99.90;;;;;;5063217;28;20246;-76
2021/01/01 00:55:36;;;;;;;36.00;23.92;;;5.00;99.90;;;;;;5068061;28;20215;-76
2021/01/01 00:58:02;;;;;;;36.08;23.88;;;5.00;99.90;;;;;;5061847;28;20198;-76
2021/01/01 01:00:29;;;;;;;39.40;24.27;;;5.00;99.90;;;;;;5067775;28;20196;-75
2021/01/01 01:02:56;;;;;;;38.75;24.70;;;4.90;99.90;;;;;;5070657;28;20217;-77
2021/01/01 01:05:23;;;;;;;36.42;25.52;;;4.90;99.90;;;;;;5060905;28;20208;-75
2021/01/01 01:07:49;;;;;;;41.10;24.88;;;4.90;99.90;;;;;;5071452;28;20189;-76
2021/01/01 01:10:16;;;;;;;43.75;27.98;;;4.90;99.90;;;;;;5066399;28;20584;-77
2021/01/01 01:12:42;;;;;;;42.47;28.27;;;4.90;99.90;;;;;;5063364;28;20208;-77
2021/01/01 01:15:10;;;;;;;40.78;26.42;;;4.90;99.90;;;;;;5070675;28;20257;-75
2021/01/01 01:17:39;;;;;;;38.17;25.35;;;4.90;99.90;;;;;;5072686;28;20204;-75
2021/01/01 01:20:08;;;;;;;40.38;28.05;;;4.90;99.90;;;;;;5065409;28;20193;-76
2021/01/01 01:22:35;;;;;;;36.58;24.70;;;4.80;99.90;;;;;;5077280;28;20196;-75
2021/01/01 01:25:01;;;;;;;43.58;25.20;;;4.80;99.90;;;;;;5064146;28;20712;-76
2021/01/01 01:27:27;;;;;;;39.40;24.27;;;4.90;99.90;;;;;;5070922;28;20184;-75
2021/01/01 01:29:54;;;;;;;39.90;25.42;;;4.80;99.90;;;;;;5060467;28;20197;-77
2021/01/01 01:32:20;;;;;;;31.67;23.60;;;4.80;99.90;;;;;;5073757;28;20202;-76
2021/01/01 01:34:47;;;;;;;32.10;22.20;;;4.80;99.90;;;;;;5062827;28;20230;-77
2021/01/01 01:37:14;;;;;;;35.95;24.20;;;4.80;99.90;;;;;;5061425;28;20208;-76
2021/01/01 01:39:40;;;;;;;34.75;21.50;;;4.80;99.90;;;;;;5065257;28;20189;-75
2021/01/01 01:42:07;;;;;;;35.55;23.75;;;4.80;99.90;;;;;;5066890;28;20200;-77
2021/01/01 01:44:34;;;;;;;36.00;23.60;;;4.90;99.90;;;;;;5067462;28;20188;-75
2021/01/01 01:47:00;;;;;;;31.92;22.92;;;4.90;99.90;;;;;;5074993;28;20200;-77
2021/01/01 01:49:27;;;;;;;34.30;22.05;;;4.90;99.90;;;;;;5065390;28;20196;-76
2021/01/01 01:51:54;;;;;;;35.92;22.70;;;4.90;99.90;;;;;;5063397;28;20250;-77
2021/01/01 01:54:22;;;;;;;33.10;21.90;;;4.90;99.90;;;;;;5066826;28;20655;-76
2021/01/01 01:56:49;;;;;;;30.65;21.98;;;4.90;99.90;;;;;;5058766;28;20201;-77
2021/01/01 01:59:17;;;;;;;31.88;21.65;;;5.00;99.90;;;;;;5068764;28;20196;-76
2021/01/01 02:01:44;;;;;;;32.75;22.48;;;5.00;99.90;;;;;;5066746;28;20305;-77
2021/01/01 02:04:10;;;;;;;32.38;21.58;;;5.00;99.90;;;;;;5068468;28;20192;-75
2021/01/01 02:06:37;;;;;;;32.78;21.30;;;5.00;99.90;;;;;;5068242;28;20199;-76
2021/01/01 02:09:03;;;;;;;34.67;21.13;;;5.00;99.90;;;;;;5071153;28;20209;-76
2021/01/01 02:11:32;;;;;;;32.38;21.40;;;5.00;99.90;;;;;;5074992;28;20224;-75
2021/01/01 02:14:01;;;;;;;34.45;22.17;;;5.00;99.90;;;;;;5066521;28;20218;-76
2021/01/01 02:16:29;;;;;;;33.78;24.50;;;5.00;99.90;;;;;;5058828;28;20550;-76
2021/01/01 02:18:55;;;;;;;37.58;26.83;;;5.00;99.90;;;;;;5068162;28;20197;-77
2021/01/01 02:21:22;;;;;;;33.47;23.77;;;5.00;99.90;;;;;;5063530;28;20663;-76
2021/01/01 02:23:50;;;;;;;41.45;25.58;;;5.00;99.90;;;;;;5067555;28;20204;-76
2021/01/01 02:26:16;;;;;;;41.65;28.05;;;5.00;99.90;;;;;;5058740;28;20201;-75
2021/01/01 02:28:42;;;;;;;44.83;28.55;;;5.00;99.90;;;;;;5058404;28;20695;-76
2021/01/01 02:31:09;;;;;;;40.15;27.20;;;5.00;99.90;;;;;;5061986;28;20219;-76
2021/01/01 02:33:35;;;;;;;41.95;29.40;;;5.00;99.90;;;;;;5059239;28;20194;-75
2021/01/01 02:36:02;;;;;;;41.17;28.35;;;5.00;99.90;;;;;;5067352;28;20212;-76
2021/01/01 02:38:29;;;;;;;38.97;28.27;;;5.00;99.90;;;;;;5067807;28;20192;-75
2021/01/01 02:40:56;;;;;;;39.70;27.10;;;5.00;99.90;;;;;;5062641;28;20200;-76
2021/01/01 02:43:23;;;;;;;43.80;29.75;;;5.00;99.90;;;;;;5065213;28;20296;-76
2021/01/01 02:45:49;;;;;;;47.03;30.20;;;4.90;99.90;;;;;;5061261;28;20216;-74
2021/01/01 02:48:17;;;;;;;50.83;30.98;;;4.90;99.90;;;;;;5067749;28;20193;-75
2021/01/01 02:50:44;;;;;;;47.17;31.80;;;4.90;99.90;;;;;;5069700;28;20711;-77
2021/01/01 02:53:11;;;;;;;51.25;31.48;;;4.90;99.90;;;;;;5064423;28;20205;-75
2021/01/01 02:55:38;;;;;;;44.58;32.97;;;4.90;99.90;;;;;;5059989;28;20200;-75
2021/01/01 02:58:06;;;;;;;48.33;32.58;;;4.90;99.90;;;;;;5067063;28;20189;-75
2021/01/01 03:00:35;;;;;;;54.50;32.70;;;4.90;99.90;;;;;;5072088;28;20194;-76
2021/01/01 03:03:01;;;;;;;48.63;33.63;;;4.90;99.90;;;;;;5067077;28;20273;-76
2021/01/01 03:05:27;;;;;;;48.72;32.10;;;4.80;99.90;;;;;;5076950;28;20199;-77
2021/01/01 03:07:54;;;;;;;53.60;32.10;;;4.90;99.90;;;;;;5065781;28;20200;-76
2021/01/01 03:10:20;;;;;;;45.83;32.95;;;4.90;99.90;;;;;;5068830;28;20313;-75
2021/01/01 03:12:47;;;;;;;48.20;30.48;;;4.90;99.90;;;;;;5063940;28;20197;-76
2021/01/01 03:15:15;;;;;;;45.05;28.90;;;4.90;99.90;;;;;;5058446;28;20487;-75
2021/01/01 03:17:41;;;;;;;44.58;32.05;;;4.90;99.90;;;;;;5063025;28;20560;-75
2021/01/01 03:20:09;;;;;;;50.40;32.22;;;4.90;99.90;;;;;;5067061;28;20228;-77
2021/01/01 03:22:36;;;;;;;47.33;29.42;;;4.90;99.90;;;;;;5063554;28;20196;-75
2021/01/01 03:25:03;;;;;;;44.65;29.88;;;4.90;99.90;;;;;;5060342;28;20200;-75
2021/01/01 03:27:30;;;;;;;44.85;31.15;;;4.90;99.90;;;;;;5060882;28;20193;-77
2021/01/01 03:29:56;;;;;;;40.22;27.65;;;4.90;99.90;;;;;;5068589;28;20554;-78
2021/01/01 03:32:23;;;;;;;47.95;30.67;;;4.90;99.90;;;;;;5065929;28;20228;-76
2021/01/01 03:34:50;;;;;;;46.47;29.85;;;4.90;99.90;;;;;;5059389;28;20653;-76
2021/01/01 03:37:16;;;;;;;45.10;30.75;;;4.90;99.90;;;;;;5068680;28;20210;-75
2021/01/01 03:39:43;;;;;;;44.75;29.52;;;4.90;99.90;;;;;;5068934;28;20196;-77
2021/01/01 03:42:11;;;;;;;52.13;31.75;;;4.90;99.90;;;;;;5066759;28;20196;-77
2021/01/01 03:44:37;;;;;;;45.58;28.60;;;4.90;99.90;;;;;;5055771;28;20200;-75
2021/01/01 03:47:04;;;;;;;40.33;26.98;;;4.90;99.90;;;;;;5066181;28;20196;-75
2021/01/01 03:49:31;;;;;;;44.92;27.90;;;4.90;99.90;;;;;;5061279;28;20188;-77
2021/01/01 03:51:57;;;;;;;47.05;26.95;;;4.90;99.90;;;;;;5063812;28;20285;-76
2021/01/01 03:54:24;;;;;;;43.17;28.00;;;4.90;99.90;;;;;;5056995;28;20193;-75
2021/01/01 03:56:50;;;;;;;42.83;28.95;;;4.90;99.90;;;;;;5063827;28;20370;-76
2021/01/01 03:59:17;;;;;;;41.33;28.05;;;4.90;99.90;;;;;;5059080;28;20250;-77
2021/01/01 04:01:43;;;;;;;47.28;29.08;;;4.90;99.90;;;;;;5063393;28;20617;-76
2021/01/01 04:04:09;;;;;;;42.03;28.85;;;4.90;99.90;;;;;;5062888;28;20233;-77
2021/01/01 04:06:37;;;;;;;45.47;27.38;;;4.90;99.90;;;;;;5072067;28;20188;-76
2021/01/01 04:09:03;;;;;;;45.30;31.73;;;4.90;99.90;;;;;;5058143;28;20217;-75
2021/01/01 04:11:35;;;;;;;42.80;27.83;;;4.90;99.90;;;;;;5063231;28;20223;-75
2021/01/01 04:14:01;;;;;;;43.47;30.88;;;4.90;99.90;;;;;;5067232;28;20787;-76
2021/01/01 04:16:28;;;;;;;39.88;29.40;;;4.90;99.90;;;;;;5064353;28;20242;-75
2021/01/01 04:18:54;;;;;;;44.85;29.90;;;4.90;99.90;;;;;;5061974;28;20218;-75
2021/01/01 04:21:21;;;;;;;42.45;28.65;;;4.90;99.90;;;;;;5065803;28;20193;-76
2021/01/01 04:23:48;;;;;;;45.15;28.90;;;4.90;99.90;;;;;;5067758;28;20591;-75
2021/01/01 04:26:15;;;;;;;45.03;30.98;;;4.90;99.90;;;;;;5068883;28;20573;-76
2021/01/01 04:28:41;;;;;;;39.38;28.60;;;4.90;99.90;;;;;;5060503;28;20234;-75
2021/01/01 04:31:08;;;;;;;43.05;28.25;;;4.90;99.90;;;;;;5063578;28;20236;-75
2021/01/01 04:33:34;;;;;;;52.25;29.95;;;4.90;99.90;;;;;;5067814;28;20192;-75
2021/01/01 04:36:00;;;;;;;45.13;29.60;;;4.90;99.90;;;;;;5070216;28;20223;-75
2021/01/01 04:38:27;;;;;;;39.83;29.35;;;4.90;99.90;;;;;;5069686;28;20286;-75
2021/01/01 04:40:54;;;;;;;39.25;27.60;;;4.90;99.90;;;;;;5063232;28;20225;-75
2021/01/01 04:43:20;;;;;;;45.97;29.17;;;4.90;99.90;;;;;;5062221;28;20226;-78
2021/01/01 04:45:47;;;;;;;40.25;29.17;;;4.90;99.90;;;;;;5064274;28;20197;-75
2021/01/01 04:48:13;;;;;;;37.53;27.25;;;4.90;99.90;;;;;;5070126;28;20201;-75
2021/01/01 04:50:40;;;;;;;43.03;28.88;;;4.90;99.90;;;;;;5066555;28;20217;-75
2021/01/01 04:53:09;;;;;;;47.13;30.45;;;4.90;99.90;;;;;;5068455;28;20203;-75
2021/01/01 04:55:37;;;;;;;49.13;29.27;;;4.90;99.90;;;;;;5063061;28;20238;-75
2021/01/01 04:58:05;;;;;;;41.67;28.90;;;4.90;99.90;;;;;;5064712;28;20235;-75
2021/01/01 05:00:32;;;;;;;48.88;30.60;;;4.90;99.90;;;;;;5063278;28;20192;-77
2021/01/01 05:02:59;;;;;;;41.72;32.58;;;4.90;99.90;;;;;;5053407;28;20742;-76
2021/01/01 05:05:28;;;;;;;46.70;32.53;;;4.90;99.90;;;;;;5064736;28;20199;-75
2021/01/01 05:07:55;;;;;;;49.28;32.88;;;4.90;99.90;;;;;;5054030;28;20644;-76
2021/01/01 05:10:21;;;;;;;46.65;32.67;;;4.90;99.90;;;;;;5064550;28;20211;-77
2021/01/01 05:12:48;;;;;;;47.20;32.70;;;4.90;99.90;;;;;;5065753;28;20220;-76
2021/01/01 05:15:33;;;;;;;47.40;33.15;;;4.90;99.90;;;;;;5066472;28;20211;-75
2021/01/01 05:17:59;;;;;;;49.28;33.35;;;4.90;99.90;;;;;;5060264;28;20208;-75
2021/01/01 05:20:28;;;;;;;47.75;33.20;;;4.80;99.90;;;;;;5060646;28;20197;-76
2021/01/01 05:22:58;;;;;;;50.10;33.58;;;4.80;99.90;;;;;;5055091;28;20204;-76
2021/01/01 05:25:25;;;;;;;44.25;33.10;;;4.80;99.90;;;;;;5070092;28;20203;-76
2021/01/01 05:28:00;;;;;;;46.28;33.42;;;4.80;99.90;;;;;;5061799;28;20668;-76
2021/01/01 05:30:31;;;;;;;46.88;33.35;;;4.80;99.90;;;;;;5063138;28;20227;-76
2021/01/01 05:32:58;;;;;;;45.03;32.80;;;4.80;99.90;;;;;;5070472;28;20194;-76
2021/01/01 05:35:29;;;;;;;47.75;31.88;;;4.80;99.90;;;;;;5065767;28;20708;-76
2021/01/01 05:37:56;;;;;;;53.42;35.78;;;4.80;99.90;;;;;;5062847;28;20200;-76
2021/01/01 05:40:30;;;;;;;48.97;36.58;;;4.80;99.90;;;;;;5068801;28;20230;-76
2021/01/01 05:43:16;;;;;;;46.92;32.58;;;4.80;99.90;;;;;;5069090;28;20248;-76
2021/01/01 05:45:43;;;;;;;47.67;34.80;;;4.80;99.90;;;;;;5063240;28;20196;-77
2021/01/01 05:48:10;;;;;;;58.25;35.85;;;4.80;99.90;;;;;;5070863;28;20193;-76
2021/01/01 05:50:37;;;;;;;48.85;35.72;;;4.80;99.90;;;;;;5071350;28;20248;-75
2021/01/01 05:53:14;;;;;;;54.70;38.47;;;4.80;99.90;;;;;;5068725;28;20211;-75
2021/01/01 05:55:41;;;;;;;51.53;35.63;;;4.80;99.90;;;;;;5063428;28;20191;-75
2021/01/01 05:58:21;;;;;;;53.30;35.40;;;4.80;99.90;;;;;;5061765;28;20774;-76
2021/01/01 06:00:53;;;;;;;49.00;35.35;;;4.80;99.90;;;;;;5065827;28;20651;-75
2021/01/01 06:03:22;;;;;;;57.90;36.58;;;4.80;99.90;;;;;;5068370;28;20235;-75
2021/01/01 06:05:53;;;;;;;44.30;32.50;;;4.80;99.90;;;;;;5073779;28;20275;-75
2021/01/01 06:08:23;;;;;;;46.13;35.53;;;4.80;99.90;;;;;;5069107;28;20200;-75
2021/01/01 06:10:51;;;;;;;50.03;34.72;;;4.80;99.90;;;;;;5061592;28;20456;-75
2021/01/01 06:13:20;;;;;;;45.42;31.40;;;4.80;99.90;;;;;;5058550;28;20201;-76
2021/01/01 06:15:56;;;;;;;44.53;30.52;;;4.70;99.90;;;;;;5064732;28;20216;-75
2021/01/01 06:18:26;;;;;;;46.22;33.92;;;4.70;99.90;;;;;;5064881;28;20199;-75
2021/01/01 06:21:01;;;;;;;48.30;33.25;;;4.70;99.90;;;;;;5065137;28;20203;-75
2021/01/01 06:23:33;;;;;;;41.72;32.15;;;4.70;99.90;;;;;;5065023;28;20890;-76
2021/01/01 06:25:59;;;;;;;49.22;34.88;;;4.70;99.90;;;;;;5071033;28;20352;-77
2021/01/01 06:28:27;;;;;;;61.80;34.20;;;4.70;99.90;;;;;;5062368;28;20189;-75
2021/01/01 06:30:56;;;;;;;48.30;33.05;;;4.70;99.90;;;;;;5062782;28;20683;-75
2021/01/01 06:33:23;;;;;;;49.63;34.95;;;4.70;99.90;;;;;;5060084;28;20225;-76
2021/01/01 06:35:50;;;;;;;44.35;33.33;;;4.70;99.90;;;;;;5061206;28;20198;-75
2021/01/01 06:38:39;;;;;;;48.28;34.22;;;4.70;99.90;;;;;;5069968;28;20193;-75
2021/01/01 06:41:10;;;;;;;51.38;35.25;;;4.60;99.90;;;;;;5072050;28;20296;-77
2021/01/01 06:43:53;;;;;;;54.00;36.55;;;4.60;99.90;;;;;;5064332;28;20273;-76
2021/01/01 06:46:34;;;;;;;51.88;36.08;;;4.60;99.90;;;;;;5063689;28;20200;-75
2021/01/01 06:49:01;;;;;;;51.78;35.72;;;4.60;99.90;;;;;;5063091;28;20189;-75
2021/01/01 06:51:29;;;;;;;54.47;35.85;;;4.60;99.90;;;;;;5064705;28;20219;-76
2021/01/01 06:54:10;;;;;;;52.05;36.92;;;4.60;99.90;;;;;;5056902;28;20299;-76
2021/01/01 06:56:36;;;;;;;55.92;33.63;;;4.60;99.90;;;;;;5068753;28;20199;-76
2021/01/01 06:59:10;;;;;;;58.42;36.35;;;4.60;99.90;;;;;;5069697;28;20204;-76
2021/01/01 07:01:42;;;;;;;51.60;38.00;;;4.60;99.90;;;;;;5062318;28;20239;-77
2021/01/01 07:04:09;;;;;;;59.88;40.67;;;4.60;99.90;;;;;;5060126;28;20200;-75
2021/01/01 07:06:41;;;;;;;60.95;35.83;;;4.60;99.90;;;;;;5063247;28;20205;-76
2021/01/01 07:09:14;;;;;;;65.85;39.78;;;4.60;99.90;;;;;;5077030;28;20185;-75
2021/01/01 07:11:42;;;;;;;63.00;40.63;;;4.60;99.90;;;;;;5071117;28;20223;-76
2021/01/01 07:14:11;;;;;;;67.70;43.55;;;4.70;99.90;;;;;;5061866;28;20253;-77
2021/01/01 07:16:40;;;;;;;64.75;41.58;;;4.70;99.90;;;;;;5055913;28;20203;-75
2021/01/01 07:19:07;;;;;;;62.38;38.28;;;4.70;99.90;;;;;;5070848;28;20216;-75
2021/01/01 07:21:33;;;;;;;71.53;41.08;;;4.70;99.90;;;;;;5064741;28;20652;-75
2021/01/01 07:24:00;;;;;;;57.35;38.47;;;4.70;99.90;;;;;;5068066;28;20208;-76
2021/01/01 07:26:29;;;;;;;58.90;39.45;;;4.70;99.90;;;;;;5063565;28;20184;-76
2021/01/01 07:28:57;;;;;;;70.40;41.67;;;4.70;99.90;;;;;;5059590;28;20218;-75
2021/01/01 07:31:23;;;;;;;72.15;43.67;;;4.70;99.90;;;;;;5060212;28;20213;-76
2021/01/01 07:33:51;;;;;;;59.97;38.53;;;4.70;99.90;;;;;;5069866;28;20247;-75
2021/01/01 07:36:18;;;;;;;60.50;39.97;;;4.70;99.90;;;;;;5064208;28;20200;-75
2021/01/01 07:38:45;;;;;;;58.67;41.22;;;4.70;99.90;;;;;;5062548;28;20203;-77
2021/01/01 07:41:12;;;;;;;69.47;42.70;;;4.70;99.90;;;;;;5065118;28;20207;-76
2021/01/01 07:43:39;;;;;;;62.13;39.25;;;4.70;99.90;;;;;;5066537;28;20201;-76
2021/01/01 07:46:07;;;;;;;61.17;38.35;;;4.70;99.90;;;;;;5060042;28;20200;-75
2021/01/01 07:48:35;;;;;;;63.88;41.00;;;4.70;99.90;;;;;;5057696;28;20201;-77
2021/01/01 07:51:05;;;;;;;59.05;38.47;;;4.70;99.90;;;;;;5067989;28;20227;-76
2021/01/01 07:53:31;;;;;;;53.45;37.30;;;4.70;99.90;;;;;;5065349;28;20201;-75
2021/01/01 07:56:02;;;;;;;54.70;36.92;;;4.70;99.90;;;;;;5058465;28;20200;-76
2021/01/01 07:58:30;;;;;;;54.90;35.90;;;4.60;99.90;;;;;;5060961;28;20678;-76
2021/01/01 08:01:03;;;;;;;52.63;37.33;;;4.60;99.90;;;;;;5062072;28;20208;-75
2021/01/01 08:03:32;;;;;;;59.95;35.97;;;4.60;99.90;;;;;;5061613;28;20247;-77
2021/01/01 08:06:00;;;;;;;52.88;37.10;;;4.60;99.90;;;;;;5062054;28;20193;-78
2021/01/01 08:08:28;;;;;;;53.97;35.17;;;4.60;99.90;;;;;;5063568;28;20201;-75
2021/01/01 08:10:56;;;;;;;63.28;35.92;;;4.60;99.90;;;;;;5070159;28;20220;-75
2021/01/01 08:13:24;;;;;;;56.40;36.92;;;4.60;99.90;;;;;;5061451;28;20230;-76
2021/01/01 08:15:52;;;;;;;60.13;36.97;;;4.60;99.90;;;;;;5067767;28;20613;-75
2021/01/01 08:18:20;;;;;;;53.35;34.47;;;4.70;99.90;;;;;;5066837;28;20199;-77
2021/01/01 08:20:47;;;;;;;59.55;36.03;;;4.70;99.90;;;;;;5060537;28;20245;-74
2021/01/01 08:23:16;;;;;;;56.42;36.53;;;4.70;99.90;;;;;;5066577;28;21248;-75
2021/01/01 08:25:45;;;;;;;57.08;36.47;;;4.70;99.90;;;;;;5070178;28;20642;-76
2021/01/01 08:28:15;;;;;;;53.22;33.80;;;4.70;99.90;;;;;;5064496;28;20191;-75
2021/01/01 08:30:42;;;;;;;57.00;33.42;;;4.70;99.90;;;;;;5069609;28;20287;-76
2021/01/01 08:33:09;;;;;;;50.13;32.08;;;4.70;99.90;;;;;;5060908;28;20205;-76
2021/01/01 08:35:36;;;;;;;49.17;33.55;;;4.70;99.90;;;;;;5063444;28;20189;-75
2021/01/01 08:38:18;;;;;;;55.88;32.92;;;4.70;99.90;;;;;;5055235;28;20216;-77
2021/01/01 08:40:53;;;;;;;52.35;32.42;;;4.70;99.90;;;;;;5065404;28;20648;-76
2021/01/01 08:43:19;;;;;;;49.15;32.63;;;4.70;99.90;;;;;;5074271;28;20200;-75
2021/01/01 08:45:46;;;;;;;47.28;31.83;;;4.70;99.90;;;;;;5067951;28;20762;-75
2021/01/01 08:48:13;;;;;;;50.58;35.15;;;4.70;99.90;;;;;;5064370;28;20192;-75
2021/01/01 08:50:45;;;;;;;47.22;31.42;;;4.70;99.90;;;;;;5069363;28;20195;-77
2021/01/01 08:53:12;;;;;;;57.80;35.60;;;4.70;99.90;;;;;;5062700;28;20267;-76
2021/01/01 08:55:39;;;;;;;51.08;34.33;;;4.70;99.90;;;;;;5063176;28;20210;-75
2021/01/01 08:58:07;;;;;;;60.92;35.70;;;4.70;99.90;;;;;;5070335;28;20197;-76
2021/01/01 09:00:34;;;;;;;50.28;31.40;;;4.80;99.90;;;;;;5063511;28;20211;-76
2021/01/01 09:03:00;;;;;;;47.92;32.65;;;4.80;99.90;;;;;;5063850;28;20220;-76
2021/01/01 09:05:27;;;;;;;50.50;31.10;;;4.80;99.90;;;;;;5068998;28;20188;-76
2021/01/01 09:08:08;;;;;;;46.10;28.35;;;4.80;99.90;;;;;;5070317;28;20246;-76
2021/01/01 09:10:35;;;;;;;43.05;30.13;;;4.80;99.90;;;;;;5070284;28;20193;-76
2021/01/01 09:13:16;;;;;;;47.55;28.15;;;4.90;99.90;;;;;;5065436;28;20231;-75
2021/01/01 09:15:43;;;;;;;55.05;29.23;;;4.90;99.90;;;;;;5071094;28;20227;-75
2021/01/01 09:18:10;;;;;;;49.45;31.90;;;4.90;99.90;;;;;;5065599;28;20204;-77
2021/01/01 09:20:40;;;;;;;42.05;29.17;;;4.90;99.90;;;;;;5066517;28;20204;-76
2021/01/01 09:23:07;;;;;;;48.90;30.02;;;5.00;99.90;;;;;;5065524;28;20192;-76
2021/01/01 09:25:34;;;;;;;51.13;31.40;;;5.00;99.90;;;;;;5066397;28;20189;-76
2021/01/01 09:28:00;;;;;;;48.38;29.95;;;5.10;99.90;;;;;;5064641;28;20209;-77
2021/01/01 09:30:29;;;;;;;44.63;28.88;;;5.10;99.90;;;;;;5062314;28;20326;-77
2021/01/01 09:32:57;;;;;;;46.50;28.75;;;5.10;99.90;;;;;;5064309;28;20297;-76
2021/01/01 09:35:24;;;;;;;51.88;31.75;;;5.20;99.90;;;;;;5056803;28;20564;-75
2021/01/01 09:37:52;;;;;;;46.25;29.90;;;5.20;99.90;;;;;;5060676;28;20288;-76
2021/01/01 09:40:19;;;;;;;44.88;27.17;;;5.20;99.90;;;;;;5058936;28;20193;-76
2021/01/01 09:42:45;;;;;;;47.05;29.13;;;5.20;99.90;;;;;;5064699;28;20247;-75
2021/01/01 09:45:14;;;;;;;46.70;28.42;;;5.30;99.90;;;;;;5062167;28;20184;-78
2021/01/01 09:47:42;;;;;;;38.65;25.75;;;5.30;99.90;;;;;;5057890;28;20189;-76
2021/01/01 09:50:09;;;;;;;41.25;26.60;;;5.30;99.90;;;;;;5057785;28;20186;-76
2021/01/01 09:52:36;;;;;;;43.55;26.73;;;5.30;99.90;;;;;;5059371;28;20227;-77
2021/01/01 09:55:03;;;;;;;44.05;26.63;;;5.30;99.90;;;;;;5055452;28;20296;-76
2021/01/01 09:57:29;;;;;;;37.17;26.25;;;5.40;99.90;;;;;;5060660;28;20238;-74
2021/01/01 09:59:56;;;;;;;45.72;28.05;;;5.40;99.90;;;;;;5066169;28;20586;-76
2021/01/01 10:02:23;;;;;;;36.72;25.50;;;5.40;99.90;;;;;;5060555;28;20696;-76
2021/01/01 10:04:50;;;;;;;44.78;26.48;;;5.50;99.90;;;;;;5061106;28;20592;-76
2021/01/01 10:07:17;;;;;;;41.50;24.73;;;5.50;99.90;;;;;;5062118;28;20189;-76
2021/01/01 10:09:43;;;;;;;33.85;22.77;;;5.50;99.90;;;;;;5060393;28;20283;-77
2021/01/01 10:12:13;;;;;;;38.03;25.45;;;5.50;99.90;;;;;;5071156;28;20216;-76
2021/01/01 10:14:39;;;;;;;35.00;24.73;;;5.60;99.90;;;;;;5070664;28;20215;-76
2021/01/01 10:17:06;;;;;;;40.15;25.67;;;5.60;99.90;;;;;;5069326;28;20196;-76
2021/01/01 10:19:32;;;;;;;37.67;26.17;;;5.60;99.90;;;;;;5063742;28;20201;-75
2021/01/01 10:21:59;;;;;;;37.97;25.33;;;5.60;99.90;;;;;;5064650;28;20196;-76
2021/01/01 10:24:26;;;;;;;38.45;25.00;;;5.70;99.90;;;;;;5068443;28;20200;-76
2021/01/01 10:26:53;;;;;;;34.72;22.70;;;5.70;99.90;;;;;;5062096;28;20197;-76
2021/01/01 10:29:20;;;;;;;32.25;21.95;;;5.70;99.90;;;;;;5057233;28;20645;-77
2021/01/01 10:31:46;;;;;;;36.15;24.10;;;5.80;99.90;;;;;;5063711;28;20258;-79
2021/01/01 10:34:13;;;;;;;32.35;22.88;;;5.80;99.90;;;;;;5063016;28;20203;-77
2021/01/01 10:36:39;;;;;;;33.45;22.33;;;5.80;99.90;;;;;;5065547;28;20584;-78
2021/01/01 10:39:08;;;;;;;38.22;24.80;;;5.80;99.90;;;;;;5061825;28;20186;-76
2021/01/01 10:41:35;;;;;;;32.30;23.17;;;5.90;99.90;;;;;;5061179;28;20273;-78
2021/01/01 10:44:02;;;;;;;39.15;23.92;;;5.90;99.90;;;;;;5057799;28;20224;-76
2021/01/01 10:46:29;;;;;;;31.48;22.95;;;6.00;99.90;;;;;;5063327;28;20659;-76
2021/01/01 10:48:56;;;;;;;44.65;24.73;;;6.00;99.90;;;;;;5061581;28;20196;-77
2021/01/01 10:51:22;;;;;;;38.40;26.10;;;6.00;99.90;;;;;;5061997;28;20809;-78
2021/01/01 10:53:49;;;;;;;36.25;23.67;;;6.00;99.90;;;;;;5061997;28;20197;-75
2021/01/01 10:56:23;;;;;;;34.30;22.10;;;6.10;99.90;;;;;;5058442;28;20753;-76
2021/01/01 10:58:50;;;;;;;33.80;21.48;;;6.10;99.90;;;;;;5055280;28;20207;-78
2021/01/01 11:01:20;;;;;;;32.85;21.60;;;6.10;99.90;;;;;;5058495;28;20225;-76
2021/01/01 11:03:47;;;;;;;29.65;21.38;;;6.10;99.90;;;;;;5058676;28;20243;-78
2021/01/01 11:06:13;;;;;;;31.13;22.85;;;6.10;99.90;;;;;;5064470;28;20696;-78
2021/01/01 11:08:40;;;;;;;27.65;20.52;;;6.20;99.90;;;;;;5055814;28;20204;-77
2021/01/01 11:11:07;;;;;;;29.23;22.30;;;6.20;99.90;;;;;;5062580;28;20628;-77
2021/01/01 11:13:38;;;;;;;30.80;21.83;;;6.20;99.90;;;;;;5064593;28;20193;-78
2021/01/01 12:22:29;;;;;;;32.92;24.90;;;6.90;99.90;;;;;;5059990;28;20199;-77
2021/01/01 12:24:56;;;;;;;34.88;23.67;;;6.90;99.90;;;;;;5065998;28;20197;-78
2021/01/01 12:27:25;;;;;;;32.53;24.45;;;6.90;99.90;;;;;;5074453;28;20228;-76
2021/01/01 12:29:53;;;;;;;34.78;25.40;;;7.00;99.90;;;;;;5070220;28;20258;-78
2021/01/01 12:32:21;;;;;;;36.03;24.35;;;7.00;99.90;;;;;;5062391;28;20220;-77
2021/01/01 12:34:49;;;;;;;27.08;19.60;;;7.00;99.90;;;;;;5067883;28;20197;-79
2021/01/01 12:37:18;;;;;;;31.48;23.42;;;7.00;99.90;;;;;;5063008;28;20756;-78
2021/01/01 12:39:44;;;;;;;30.23;22.75;;;7.00;99.90;;;;;;5066381;28;20205;-78
2021/01/01 12:42:10;;;;;;;33.45;23.13;;;7.00;99.90;;;;;;5077075;28;20198;-77
2021/01/01 12:44:37;;;;;;;30.23;21.85;;;7.00;99.90;;;;;;5068883;28;20544;-77
2021/01/01 12:47:03;;;;;;;27.73;19.50;;;7.00;99.90;;;;;;5066959;28;20602;-77
2021/01/01 12:49:30;;;;;;;24.52;17.73;;;7.00;99.90;;;;;;5059508;28;20201;-77
2021/01/01 12:51:57;;;;;;;28.33;19.92;;;7.00;99.90;;;;;;5064136;28;20232;-76
2021/01/01 12:54:23;;;;;;;31.33;20.17;;;7.00;99.90;;;;;;5068853;28;20197;-77
2021/01/01 12:56:50;;;;;;;27.33;20.02;;;7.00;99.90;;;;;;5062862;28;20197;-79
2021/01/01 12:59:16;;;;;;;26.30;18.48;;;7.00;99.90;;;;;;5061285;28;20196;-79
2021/01/01 13:01:43;;;;;;;24.65;17.52;;;7.00;99.90;;;;;;5068413;28;20908;-76
2021/01/01 13:04:09;;;;;;;23.55;16.75;;;7.00;99.90;;;;;;5072738;28;20205;-75
2021/01/01 13:06:35;;;;;;;25.92;17.15;;;7.00;99.90;;;;;;5075080;28;20199;-78
2021/01/01 13:09:03;;;;;;;27.63;17.20;;;7.00;99.90;;;;;;5062373;28;20184;-76
2021/01/01 13:11:31;;;;;;;25.58;17.00;;;7.00;99.90;;;;;;5061277;28;20210;-77
2021/01/01 13:13:57;;;;;;;19.48;16.33;;;7.00;99.90;;;;;;5061711;28;20193;-77
2021/01/01 13:16:25;;;;;;;28.27;16.38;;;7.00;99.90;;;;;;5066517;28;20188;-76
2021/01/01 13:18:52;;;;;;;16.80;14.35;;;7.00;99.90;;;;;;5060810;28;20186;-76
2021/01/01 13:21:37;;;;;;;23.83;16.60;;;7.00;99.90;;;;;;5062244;28;20706;-76
2021/01/01 13:24:06;;;;;;;17.83;14.40;;;7.00;99.90;;;;;;5055505;28;20194;-77
2021/01/01 13:26:33;;;;;;;20.58;13.93;;;7.00;99.90;;;;;;5062017;28;20198;-76
2021/01/01 13:29:00;;;;;;;18.17;13.98;;;6.90;99.90;;;;;;5070022;28;20203;-76
2021/01/01 13:31:34;;;;;;;17.95;14.00;;;6.90;99.90;;;;;;5069082;28;20591;-77
2021/01/01 13:34:01;;;;;;;22.48;15.27;;;6.90;99.90;;;;;;5073202;28;20185;-78
2021/01/01 13:36:27;;;;;;;24.90;16.52;;;6.90;99.90;;;;;;5065425;28;20206;-76
2021/01/01 13:38:54;;;;;;;22.15;16.00;;;6.90;99.90;;;;;;5066686;28;20188;-76
2021/01/01 13:41:21;;;;;;;24.05;17.20;;;6.90;99.90;;;;;;5059305;28;20205;-76
2021/01/01 13:43:47;;;;;;;17.05;14.25;;;6.90;99.90;;;;;;5061300;28;20196;-77
2021/01/01 13:46:20;;;;;;;20.13;15.18;;;6.90;99.90;;;;;;5061681;28;20671;-77